sensor_id;sensor_type;location;lat;lon;timestamp;pressure;altitude;pressure_sealevel;temperature;humidity
77263;BME280;66373;52.334;4.806;2023-11-18T00:01:50;102249.16;;;17.27;62.47
77263;BME280;66373;52.334;4.806;2023-11-18T00:04:17;102247.44;;;17.29;62.70
77263;BME280;66373;52.334;4.806;2023-11-18T00:06:44;102243.97;;;17.27;62.42
77263;BME280;66373;52.334;4.806;2023-11-18T00:09:11;102236.16;;;17.27;62.39
77263;BME280;66373;52.334;4.806;2023-11-18T00:11:40;102249.16;;;17.27;62.54
77263;BME280;66373;52.334;4.806;2023-11-18T00:14:09;102250.91;;;17.25;62.57
77263;BME280;66373;52.334;4.806;2023-11-18T00:16:37;102236.16;;;17.24;62.23
77263;BME280;66373;52.334;4.806;2023-11-18T00:19:04;102235.28;;;17.22;62.61
77263;BME280;66373;52.334;4.806;2023-11-18T00:21:34;102233.56;;;17.24;62.58
77263;BME280;66373;52.334;4.806;2023-11-18T00:24:03;102228.34;;;17.23;62.32
77263;BME280;66373;52.334;4.806;2023-11-18T00:26:30;102228.34;;;17.23;62.38
77263;BME280;66373;52.334;4.806;2023-11-18T00:28:58;102220.50;;;17.18;62.30
77263;BME280;66373;52.334;4.806;2023-11-18T00:31:27;102237.88;;;17.22;62.48
77263;BME280;66373;52.334;4.806;2023-11-18T00:33:55;102231.78;;;17.19;62.28
77263;BME280;66373;52.334;4.806;2023-11-18T00:36:22;102242.19;;;17.22;62.29
77263;BME280;66373;52.334;4.806;2023-11-18T00:38:49;102238.72;;;17.21;62.08
77263;BME280;66373;52.334;4.806;2023-11-18T00:41:16;102242.19;;;17.22;62.47
77263;BME280;66373;52.334;4.806;2023-11-18T00:43:44;102246.53;;;17.21;62.29
77263;BME280;66373;52.334;4.806;2023-11-18T00:46:11;102236.13;;;17.21;62.15
77263;BME280;66373;52.334;4.806;2023-11-18T00:48:39;102245.66;;;17.19;62.22
77263;BME280;66373;52.334;4.806;2023-11-18T00:51:06;102239.56;;;17.17;62.37
77263;BME280;66373;52.334;4.806;2023-11-18T00:53:34;102248.25;;;17.19;62.23
77263;BME280;66373;52.334;4.806;2023-11-18T00:56:01;102249.13;;;17.20;62.31
77263;BME280;66373;52.334;4.806;2023-11-18T00:58:28;102245.66;;;17.19;62.12
77263;BME280;66373;52.334;4.806;2023-11-18T01:00:55;102246.53;;;17.18;62.07
77263;BME280;66373;52.334;4.806;2023-11-18T01:03:51;102246.53;;;17.18;62.09
77263;BME280;66373;52.334;4.806;2023-11-18T01:06:19;102225.69;;;17.06;62.34
77263;BME280;66373;52.334;4.806;2023-11-18T01:08:47;102239.59;;;17.14;62.12
77263;BME280;66373;52.334;4.806;2023-11-18T01:11:16;102231.78;;;17.11;62.13
77263;BME280;66373;52.334;4.806;2023-11-18T01:13:44;102246.53;;;17.18;62.12
77263;BME280;66373;52.334;4.806;2023-11-18T01:16:11;102248.25;;;17.19;62.01
77263;BME280;66373;52.334;4.806;2023-11-18T01:18:39;102249.13;;;17.18;62.00
77263;BME280;66373;52.334;4.806;2023-11-18T01:21:07;102248.25;;;17.18;61.93
77263;BME280;66373;52.334;4.806;2023-11-18T01:23:35;102239.56;;;17.17;62.14
77263;BME280;66373;52.334;4.806;2023-11-18T01:26:03;102237.84;;;17.18;61.93
77263;BME280;66373;52.334;4.806;2023-11-18T01:28:34;102223.97;;;17.08;62.01
77263;BME280;66373;52.334;4.806;2023-11-18T01:31:04;102190.94;;;16.86;61.96
77263;BME280;66373;52.334;4.806;2023-11-18T01:33:33;102248.25;;;17.16;61.79
77263;BME280;66373;52.334;4.806;2023-11-18T01:36:04;102248.25;;;17.16;62.03
77263;BME280;66373;52.334;4.806;2023-11-18T01:38:33;102251.69;;;17.15;61.88
77263;BME280;66373;52.334;4.806;2023-11-18T01:41:00;102247.38;;;17.16;62.03
77263;BME280;66373;52.334;4.806;2023-11-18T01:43:27;102249.09;;;17.09;61.98
77263;BME280;66373;52.334;4.806;2023-11-18T01:45:57;102251.69;;;17.15;61.94
77263;BME280;66373;52.334;4.806;2023-11-18T01:48:27;102218.69;;;16.99;62.01
77263;BME280;66373;52.334;4.806;2023-11-18T01:50:56;102254.31;;;17.15;61.81
77263;BME280;66373;52.334;4.806;2023-11-18T01:53:25;102256.91;;;17.15;61.85
77263;BME280;66373;52.334;4.806;2023-11-18T01:55:55;102263.88;;;17.15;61.83
77263;BME280;66373;52.334;4.806;2023-11-18T01:58:24;102270.78;;;17.14;61.88
77263;BME280;66373;52.334;4.806;2023-11-18T02:00:57;102267.31;;;17.12;61.81
77263;BME280;66373;52.334;4.806;2023-11-18T02:03:24;102254.25;;;17.05;61.82
77263;BME280;66373;52.334;4.806;2023-11-18T02:05:53;102258.63;;;17.10;61.68
77263;BME280;66373;52.334;4.806;2023-11-18T02:08:20;102274.25;;;17.13;61.85
77263;BME280;66373;52.334;4.806;2023-11-18T02:10:50;102269.06;;;17.13;61.73
77263;BME280;66373;52.334;4.806;2023-11-18T02:13:22;102262.97;;;17.13;61.90
77263;BME280;66373;52.334;4.806;2023-11-18T02:15:53;102269.91;;;17.12;61.66
77263;BME280;66373;52.334;4.806;2023-11-18T02:18:24;102256.06;;;17.13;61.73
77263;BME280;66373;52.334;4.806;2023-11-18T02:20:55;102237.78;;;17.01;61.68
77263;BME280;66373;52.334;4.806;2023-11-18T02:23:23;102238.66;;;17.03;61.81
77263;BME280;66373;52.334;4.806;2023-11-18T02:25:53;102248.22;;;17.10;61.67
77263;BME280;66373;52.334;4.806;2023-11-18T02:28:21;102224.75;;;16.98;61.48
77263;BME280;66373;52.334;4.806;2023-11-18T02:30:50;102250.84;;;17.12;61.67
77263;BME280;66373;52.334;4.806;2023-11-18T02:33:25;102265.56;;;17.11;61.69
77263;BME280;66373;52.334;4.806;2023-11-18T02:36:06;102249.09;;;17.09;61.36
77263;BME280;66373;52.334;4.806;2023-11-18T02:38:50;102249.06;;;17.06;61.66
77263;BME280;66373;52.334;4.806;2023-11-18T02:41:20;102247.38;;;17.11;61.68
77263;BME280;66373;52.334;4.806;2023-11-18T02:43:47;102227.38;;;17.03;61.59
77263;BME280;66373;52.334;4.806;2023-11-18T02:46:18;102240.44;;;17.09;61.73
77263;BME280;66373;52.334;4.806;2023-11-18T02:48:47;102230.91;;;17.09;61.49
77263;BME280;66373;52.334;4.806;2023-11-18T02:51:14;102236.09;;;17.09;61.63
77263;BME280;66373;52.334;4.806;2023-11-18T02:53:42;102220.47;;;17.06;61.55
77263;BME280;66373;52.334;4.806;2023-11-18T02:56:10;102222.22;;;17.09;61.60
77263;BME280;66373;52.334;4.806;2023-11-18T02:58:39;102190.94;;;16.95;61.47
77263;BME280;66373;52.334;4.806;2023-11-18T03:01:06;102215.28;;;17.06;61.58
77263;BME280;66373;52.334;4.806;2023-11-18T03:03:33;102214.38;;;17.03;61.53
77263;BME280;66373;52.334;4.806;2023-11-18T03:06:00;102216.16;;;17.08;61.48
77263;BME280;66373;52.334;4.806;2023-11-18T03:08:27;102198.75;;;16.93;61.40
77263;BME280;66373;52.334;4.806;2023-11-18T03:10:55;102213.53;;;17.02;61.34
77263;BME280;66373;52.334;4.806;2023-11-18T03:13:24;102217.00;;;17.06;61.67
77263;BME280;66373;52.334;4.806;2023-11-18T03:15:52;102190.06;;;16.94;61.46
77263;BME280;66373;52.334;4.806;2023-11-18T03:18:19;102209.22;;;17.07;61.45
77263;BME280;66373;52.334;4.806;2023-11-18T03:20:46;102184.03;;;16.97;61.44
77263;BME280;66373;52.334;4.806;2023-11-18T03:23:14;102194.47;;;17.06;61.55
77263;BME280;66373;52.334;4.806;2023-11-18T03:25:41;102188.41;;;17.06;61.39
77263;BME280;66373;52.334;4.806;2023-11-18T03:28:09;102182.34;;;17.05;61.48
77263;BME280;66373;52.334;4.806;2023-11-18T03:30:36;102180.59;;;17.04;61.30
77263;BME280;66373;52.334;4.806;2023-11-18T03:33:05;102171.94;;;17.05;61.35
77263;BME280;66373;52.334;4.806;2023-11-18T03:35:36;102169.34;;;17.04;61.41
77263;BME280;66373;52.334;4.806;2023-11-18T03:38:04;102153.72;;;17.02;61.31
77263;BME280;66373;52.334;4.806;2023-11-18T03:40:31;102150.28;;;17.05;61.38
77263;BME280;66373;52.334;4.806;2023-11-18T03:43:00;102143.31;;;16.98;61.66
77263;BME280;66373;52.334;4.806;2023-11-18T03:45:28;102139.00;;;17.04;61.30
77263;BME280;66373;52.334;4.806;2023-11-18T03:47:56;102124.25;;;17.00;61.40
77263;BME280;66373;52.334;4.806;2023-11-18T03:50:24;102102.56;;;16.92;61.42
77263;BME280;66373;52.334;4.806;2023-11-18T03:52:51;102124.28;;;17.03;61.35
77263;BME280;66373;52.334;4.806;2023-11-18T03:55:18;102124.28;;;17.03;61.40
77263;BME280;66373;52.334;4.806;2023-11-18T03:57:46;102119.06;;;17.02;61.47
77263;BME280;66373;52.334;4.806;2023-11-18T04:00:16;102094.75;;;16.90;61.50
77263;BME280;66373;52.334;4.806;2023-11-18T04:02:44;102112.13;;;17.02;61.26
77263;BME280;66373;52.334;4.806;2023-11-18T04:05:11;102117.31;;;17.01;61.53
77263;BME280;66373;52.334;4.806;2023-11-18T04:07:40;102100.84;;;16.94;61.30
77263;BME280;66373;52.334;4.806;2023-11-18T04:10:08;102117.31;;;17.01;61.43
77263;BME280;66373;52.334;4.806;2023-11-18T04:12:36;102103.47;;;17.00;61.19
77263;BME280;66373;52.334;4.806;2023-11-18T04:15:04;102076.56;;;16.92;61.34
77263;BME280;66373;52.334;4.806;2023-11-18T04:17:31;102090.44;;;16.97;61.38
77263;BME280;66373;52.334;4.806;2023-11-18T04:19:58;102075.69;;;16.90;61.21
77263;BME280;66373;52.334;4.806;2023-11-18T04:22:26;102087.00;;;16.98;61.33
77263;BME280;66373;52.334;4.806;2023-11-18T04:24:54;102076.59;;;16.89;61.14
77263;BME280;66373;52.334;4.806;2023-11-18T04:27:21;102087.00;;;16.98;61.35
77263;BME280;66373;52.334;4.806;2023-11-18T04:29:48;102083.50;;;16.96;61.42
77263;BME280;66373;52.334;4.806;2023-11-18T04:32:16;102074.00;;;16.98;61.28
77263;BME280;66373;52.334;4.806;2023-11-18T04:34:43;102070.50;;;16.93;61.14
77263;BME280;66373;52.334;4.806;2023-11-18T04:37:10;102076.59;;;16.98;61.23
77263;BME280;66373;52.334;4.806;2023-11-18T04:39:37;102069.66;;;16.97;61.36
77263;BME280;66373;52.334;4.806;2023-11-18T04:42:06;102071.38;;;16.95;61.28
77263;BME280;66373;52.334;4.806;2023-11-18T04:44:33;102071.38;;;16.95;61.20
77263;BME280;66373;52.334;4.806;2023-11-18T04:47:00;102069.63;;;16.91;61.03
77263;BME280;66373;52.334;4.806;2023-11-18T04:49:27;102040.97;;;16.68;61.05
77263;BME280;66373;52.334;4.806;2023-11-18T04:51:55;102084.34;;;16.90;61.16
77263;BME280;66373;52.334;4.806;2023-11-18T04:54:22;102076.56;;;16.92;61.31
77263;BME280;66373;52.334;4.806;2023-11-18T04:56:49;102055.78;;;16.86;61.10
77263;BME280;66373;52.334;4.806;2023-11-18T04:59:18;102074.84;;;16.94;61.21
77263;BME280;66373;52.334;4.806;2023-11-18T05:01:47;102069.63;;;16.92;61.29
77263;BME280;66373;52.334;4.806;2023-11-18T05:04:14;102075.72;;;16.94;61.18
77263;BME280;66373;52.334;4.806;2023-11-18T05:06:41;102067.91;;;16.90;61.28
77263;BME280;66373;52.334;4.806;2023-11-18T05:09:08;102077.44;;;16.92;61.29
77263;BME280;66373;52.334;4.806;2023-11-18T05:11:35;102060.97;;;16.92;61.09
77263;BME280;66373;52.334;4.806;2023-11-18T05:14:02;102062.72;;;16.93;61.07
77263;BME280;66373;52.334;4.806;2023-11-18T05:16:31;102027.19;;;16.87;61.09
77263;BME280;66373;52.334;4.806;2023-11-18T05:18:58;102027.22;;;16.89;61.06
77263;BME280;66373;52.334;4.806;2023-11-18T05:21:25;102034.13;;;16.91;61.04
77263;BME280;66373;52.334;4.806;2023-11-18T05:23:52;102026.31;;;16.91;61.06
77263;BME280;66373;52.334;4.806;2023-11-18T05:26:19;102028.91;;;16.91;61.19
77263;BME280;66373;52.334;4.806;2023-11-18T05:28:46;102019.38;;;16.78;61.16
77263;BME280;66373;52.334;4.806;2023-11-18T05:31:15;102041.91;;;16.90;61.11
77263;BME280;66373;52.334;4.806;2023-11-18T05:33:46;102044.50;;;16.90;61.15
77263;BME280;66373;52.334;4.806;2023-11-18T05:36:17;102028.91;;;16.90;61.22
77263;BME280;66373;52.334;4.806;2023-11-18T05:38:52;102000.34;;;16.84;61.12
77263;BME280;66373;52.334;4.806;2023-11-18T05:41:19;102009.00;;;16.86;61.24
77263;BME280;66373;52.334;4.806;2023-11-18T05:43:53;102004.66;;;16.89;61.07
77263;BME280;66373;52.334;4.806;2023-11-18T05:46:23;102006.41;;;16.87;61.24
77263;BME280;66373;52.334;4.806;2023-11-18T05:48:53;102005.53;;;16.84;61.13
77263;BME280;66373;52.334;4.806;2023-11-18T05:51:21;102012.47;;;16.88;60.97
77263;BME280;66373;52.334;4.806;2023-11-18T05:53:49;102007.28;;;16.85;60.84
77263;BME280;66373;52.334;4.806;2023-11-18T05:56:17;102012.47;;;16.88;60.99
77263;BME280;66373;52.334;4.806;2023-11-18T05:58:45;102005.53;;;16.87;61.14
77263;BME280;66373;52.334;4.806;2023-11-18T06:01:12;101998.59;;;16.86;61.08
77263;BME280;66373;52.334;4.806;2023-11-18T06:03:41;101987.34;;;16.81;61.20
77263;BME280;66373;52.334;4.806;2023-11-18T06:06:11;101990.81;;;16.84;61.18
77263;BME280;66373;52.334;4.806;2023-11-18T06:08:40;101987.34;;;16.85;61.04
77263;BME280;66373;52.334;4.806;2023-11-18T06:11:07;101981.28;;;16.85;60.92
77263;BME280;66373;52.334;4.806;2023-11-18T06:13:40;101985.63;;;16.86;60.98
77263;BME280;66373;52.334;4.806;2023-11-18T06:16:12;101965.66;;;16.77;60.71
77263;BME280;66373;52.334;4.806;2023-11-18T06:18:42;101982.16;;;16.85;60.75
77263;BME280;66373;52.334;4.806;2023-11-18T06:21:14;101976.94;;;16.85;60.75
77263;BME280;66373;52.334;4.806;2023-11-18T06:23:42;101965.66;;;16.79;60.57
77263;BME280;66373;52.334;4.806;2023-11-18T06:26:09;101961.34;;;16.76;60.74
77263;BME280;66373;52.334;4.806;2023-11-18T06:28:38;101986.47;;;16.85;60.89
77263;BME280;66373;52.334;4.806;2023-11-18T06:31:05;101972.59;;;16.77;60.98
77263;BME280;66373;52.334;4.806;2023-11-18T06:33:38;101989.06;;;16.82;60.78
77263;BME280;66373;52.334;4.806;2023-11-18T06:36:07;101971.72;;;16.79;60.87
77263;BME280;66373;52.334;4.806;2023-11-18T06:38:35;101969.16;;;16.82;60.82
77263;BME280;66373;52.334;4.806;2023-11-18T06:41:03;101962.19;;;16.77;60.99
77263;BME280;66373;52.334;4.806;2023-11-18T06:43:31;101969.13;;;16.78;61.04
77263;BME280;66373;52.334;4.806;2023-11-18T06:46:11;101968.28;;;16.80;61.08
77263;BME280;66373;52.334;4.806;2023-11-18T06:48:40;101967.38;;;16.74;61.04
77263;BME280;66373;52.334;4.806;2023-11-18T06:51:07;101968.25;;;16.74;60.91
77263;BME280;66373;52.334;4.806;2023-11-18T06:53:36;101969.13;;;16.75;61.09
77263;BME280;66373;52.334;4.806;2023-11-18T06:56:04;101978.66;;;16.79;60.89
77263;BME280;66373;52.334;4.806;2023-11-18T06:58:31;101975.19;;;16.78;61.03
77263;BME280;66373;52.334;4.806;2023-11-18T07:00:58;101966.50;;;16.69;61.22
77263;BME280;66373;52.334;4.806;2023-11-18T07:03:25;101988.19;;;16.77;60.99
77263;BME280;66373;52.334;4.806;2023-11-18T07:05:52;101996.84;;;16.76;61.15
77263;BME280;66373;52.334;4.806;2023-11-18T07:08:19;101996.84;;;16.76;61.35
77263;BME280;66373;52.334;4.806;2023-11-18T07:10:48;101995.09;;;16.72;61.07
77263;BME280;66373;52.334;4.806;2023-11-18T07:13:15;101994.25;;;16.76;61.15
77263;BME280;66373;52.334;4.806;2023-11-18T07:15:43;101993.38;;;16.77;61.15
77263;BME280;66373;52.334;4.806;2023-11-18T07:18:10;101984.72;;;16.75;61.13
77263;BME280;66373;52.334;4.806;2023-11-18T07:20:37;101986.44;;;16.76;61.01
77263;BME280;66373;52.334;4.806;2023-11-18T07:23:04;101982.97;;;16.75;61.07
77263;BME280;66373;52.334;4.806;2023-11-18T07:25:34;101987.31;;;16.75;61.19
77263;BME280;66373;52.334;4.806;2023-11-18T07:28:03;101988.16;;;16.74;61.21
77263;BME280;66373;52.334;4.806;2023-11-18T07:30:30;101980.38;;;16.71;61.19
77263;BME280;66373;52.334;4.806;2023-11-18T07:32:58;101983.84;;;16.74;61.27
77263;BME280;66373;52.334;4.806;2023-11-18T07:35:27;101968.22;;;16.67;61.17
77263;BME280;66373;52.334;4.806;2023-11-18T07:37:55;101964.78;;;16.72;61.21
77263;BME280;66373;52.334;4.806;2023-11-18T07:40:24;101960.44;;;16.70;61.16
77263;BME280;66373;52.334;4.806;2023-11-18T07:42:54;101950.94;;;16.72;61.18
77263;BME280;66373;52.334;4.806;2023-11-18T07:45:23;101937.06;;;16.68;61.20
77263;BME280;66373;52.334;4.806;2023-11-18T07:47:51;101937.88;;;16.59;61.09
77263;BME280;66373;52.334;4.806;2023-11-18T07:50:19;101951.75;;;16.65;60.90
77263;BME280;66373;52.334;4.806;2023-11-18T07:52:47;101945.69;;;16.59;61.13
77263;BME280;66373;52.334;4.806;2023-11-18T07:55:14;101935.28;;;16.59;61.15
77263;BME280;66373;52.334;4.806;2023-11-18T07:57:47;101922.28;;;16.56;60.96
77263;BME280;66373;52.334;4.806;2023-11-18T08:00:37;101935.31;;;16.64;61.05
77263;BME280;66373;52.334;4.806;2023-11-18T08:03:07;101937.06;;;16.70;61.11
77263;BME280;66373;52.334;4.806;2023-11-18T08:05:39;101928.38;;;16.66;61.20
77263;BME280;66373;52.334;4.806;2023-11-18T08:08:06;101927.50;;;16.62;61.33
77263;BME280;66373;52.334;4.806;2023-11-18T08:10:47;101866.84;;;16.36;61.19
77263;BME280;66373;52.334;4.806;2023-11-18T08:13:29;101892.84;;;16.48;60.97
77263;BME280;66373;52.334;4.806;2023-11-18T08:16:26;101833.03;;;16.16;60.86
77263;BME280;66373;52.334;4.806;2023-11-18T08:19:16;101930.13;;;16.70;60.82
77263;BME280;66373;52.334;4.806;2023-11-18T08:22:14;101929.25;;;16.67;61.04
77263;BME280;66373;52.334;4.806;2023-11-18T08:24:41;101856.44;;;16.27;60.97
77263;BME280;66373;52.334;4.806;2023-11-18T08:27:08;101916.25;;;16.59;61.32
77263;BME280;66373;52.334;4.806;2023-11-18T08:29:35;101920.59;;;16.69;61.02
77263;BME280;66373;52.334;4.806;2023-11-18T08:32:06;101879.88;;;16.53;60.98
77263;BME280;66373;52.334;4.806;2023-11-18T08:34:35;101891.16;;;16.62;61.37
77263;BME280;66373;52.334;4.806;2023-11-18T08:37:03;101882.50;;;16.63;60.81
77263;BME280;66373;52.334;4.806;2023-11-18T08:39:30;101886.81;;;16.68;60.92
77263;BME280;66373;52.334;4.806;2023-11-18T08:41:57;101872.09;;;16.68;60.90
77263;BME280;66373;52.334;4.806;2023-11-18T08:44:25;101862.56;;;16.62;60.91
77263;BME280;66373;52.334;4.806;2023-11-18T08:47:00;101829.66;;;16.57;60.86
77263;BME280;66373;52.334;4.806;2023-11-18T08:49:36;101835.72;;;16.51;60.90
77263;BME280;66373;52.334;4.806;2023-11-18T08:52:06;101838.34;;;16.67;61.00
77263;BME280;66373;52.334;4.806;2023-11-18T08:54:35;101859.97;;;16.67;60.81
77263;BME280;66373;52.334;4.806;2023-11-18T08:57:14;101840.91;;;16.60;60.83
77263;BME280;66373;52.334;4.806;2023-11-18T08:59:55;101813.19;;;16.47;60.89
77263;BME280;66373;52.334;4.806;2023-11-18T09:02:50;101833.13;;;16.62;60.78
77263;BME280;66373;52.334;4.806;2023-11-18T09:05:20;101796.75;;;16.47;60.66
77263;BME280;66373;52.334;4.806;2023-11-18T09:07:48;101817.53;;;16.63;60.92
77263;BME280;66373;52.334;4.806;2023-11-18T09:10:16;101813.22;;;16.64;60.84
77263;BME280;66373;52.334;4.806;2023-11-18T09:12:43;101815.81;;;16.64;60.85
77263;BME280;66373;52.334;4.806;2023-11-18T09:15:10;101786.38;;;16.57;60.97
77263;BME280;66373;52.334;4.806;2023-11-18T09:17:43;101802.81;;;16.62;60.78
77263;BME280;66373;52.334;4.806;2023-11-18T09:20:10;101814.06;;;16.61;60.89
77263;BME280;66373;52.334;4.806;2023-11-18T09:22:41;101801.09;;;16.58;60.98
77263;BME280;66373;52.334;4.806;2023-11-18T09:25:09;101799.34;;;16.62;60.81
77263;BME280;66373;52.334;4.806;2023-11-18T09:27:36;101804.56;;;16.63;60.92
77263;BME280;66373;52.334;4.806;2023-11-18T09:30:06;101792.44;;;16.62;60.86
77263;BME280;66373;52.334;4.806;2023-11-18T09:32:39;101733.53;;;16.22;60.87
77263;BME280;66373;52.334;4.806;2023-11-18T09:35:08;101773.38;;;16.48;60.83
77263;BME280;66373;52.334;4.806;2023-11-18T09:37:38;101800.22;;;16.61;61.00
77263;BME280;66373;52.334;4.806;2023-11-18T09:40:10;101802.81;;;16.61;60.63
77263;BME280;66373;52.334;4.806;2023-11-18T09:42:40;101802.81;;;16.61;60.90
77263;BME280;66373;52.334;4.806;2023-11-18T09:45:10;101790.69;;;16.52;60.69
77263;BME280;66373;52.334;4.806;2023-11-18T09:47:43;101778.56;;;16.48;60.87
77263;BME280;66373;52.334;4.806;2023-11-18T09:50:17;101776.81;;;16.41;60.78
77263;BME280;66373;52.334;4.806;2023-11-18T09:52:48;101807.13;;;16.54;60.73
77263;BME280;66373;52.334;4.806;2023-11-18T09:55:26;101789.81;;;16.53;60.87
77263;BME280;66373;52.334;4.806;2023-11-18T09:58:03;101782.88;;;16.48;60.85
77263;BME280;66373;52.334;4.806;2023-11-18T10:00:36;101787.22;;;16.53;60.73
77263;BME280;66373;52.334;4.806;2023-11-18T10:03:07;101797.63;;;16.59;60.90
77263;BME280;66373;52.334;4.806;2023-11-18T10:05:40;101790.69;;;16.52;60.91
77263;BME280;66373;52.334;4.806;2023-11-18T10:08:08;101797.63;;;16.59;60.72
77263;BME280;66373;52.334;4.806;2023-11-18T10:10:39;101790.69;;;16.58;60.74
77263;BME280;66373;52.334;4.806;2023-11-18T10:13:12;101769.91;;;16.55;60.80
77263;BME280;66373;52.334;4.806;2023-11-18T10:15:47;101765.59;;;16.57;60.67
77263;BME280;66373;52.334;4.806;2023-11-18T10:18:18;101730.09;;;16.35;60.59
77263;BME280;66373;52.334;4.806;2023-11-18T10:20:50;101754.31;;;16.58;61.04
77263;BME280;66373;52.334;4.806;2023-11-18T10:23:19;101729.22;;;16.45;60.80
77263;BME280;66373;52.334;4.806;2023-11-18T10:25:49;101724.88;;;16.53;60.63
77263;BME280;66373;52.334;4.806;2023-11-18T10:28:23;101730.09;;;16.56;60.94
77263;BME280;66373;52.334;4.806;2023-11-18T10:30:53;101725.75;;;16.57;60.90
77263;BME280;66373;52.334;4.806;2023-11-18T10:33:25;101716.22;;;16.51;60.89
77263;BME280;66373;52.334;4.806;2023-11-18T10:35:57;101649.59;;;16.12;61.11
77263;BME280;66373;52.334;4.806;2023-11-18T10:38:32;101666.91;;;16.18;60.88
77263;BME280;66373;52.334;4.806;2023-11-18T10:41:04;101645.28;;;15.98;60.80
77263;BME280;66373;52.334;4.806;2023-11-18T10:43:39;101714.50;;;16.47;61.13
77263;BME280;66373;52.334;4.806;2023-11-18T10:46:08;101596.84;;;15.87;61.09
77263;BME280;66373;52.334;4.806;2023-11-18T10:48:43;101655.66;;;16.25;61.02
77263;BME280;66373;52.334;4.806;2023-11-18T10:51:14;101682.47;;;16.53;61.17
77263;BME280;66373;52.334;4.806;2023-11-18T10:53:42;101617.59;;;16.24;61.26
77263;BME280;66373;52.334;4.806;2023-11-18T10:56:20;101574.31;;;16.26;60.97
77263;BME280;66373;52.334;4.806;2023-11-18T10:58:52;101602.81;;;16.47;61.08
77263;BME280;66373;52.334;4.806;2023-11-18T11:01:29;101584.66;;;16.40;61.11
77263;BME280;66373;52.334;4.806;2023-11-18T11:03:58;101525.00;;;16.17;61.24
77263;BME280;66373;52.334;4.806;2023-11-18T11:06:26;101541.38;;;16.43;61.04
77263;BME280;66373;52.334;4.806;2023-11-18T11:08:56;101499.94;;;16.14;61.09
77263;BME280;66373;52.334;4.806;2023-11-18T11:11:39;101556.97;;;16.46;61.42
77263;BME280;66373;52.334;4.806;2023-11-18T11:14:09;101506.88;;;16.11;61.16
77263;BME280;66373;52.334;4.806;2023-11-18T11:16:41;101430.84;;;15.69;61.34
77263;BME280;66373;52.334;4.806;2023-11-18T11:19:20;101512.91;;;16.22;61.20
77263;BME280;66373;52.334;4.806;2023-11-18T11:22:03;101490.38;;;16.24;61.31
77263;BME280;66373;52.334;4.806;2023-11-18T11:24:45;101461.84;;;16.15;61.31
77263;BME280;66373;52.334;4.806;2023-11-18T11:27:22;101505.88;;;16.48;61.43
77263;BME280;66373;52.334;4.806;2023-11-18T11:30:00;101491.19;;;16.41;61.02
77263;BME280;66373;52.334;4.806;2023-11-18T11:32:39;101492.03;;;16.48;61.68
77263;BME280;66373;52.334;4.806;2023-11-18T11:35:22;101498.97;;;16.47;61.30
77263;BME280;66373;52.334;4.806;2023-11-18T11:37:52;101486.03;;;16.35;61.52
77263;BME280;66373;52.334;4.806;2023-11-18T11:40:31;101492.91;;;16.45;61.73
77263;BME280;66373;52.334;4.806;2023-11-18T11:43:03;101464.34;;;16.39;61.65
77263;BME280;66373;52.334;4.806;2023-11-18T11:45:36;101375.44;;;15.91;61.60
77263;BME280;66373;52.334;4.806;2023-11-18T11:48:30;101414.25;;;16.20;61.58
77263;BME280;66373;52.334;4.806;2023-11-18T11:51:16;101389.25;;;16.06;61.29
77263;BME280;66373;52.334;4.806;2023-11-18T11:53:51;101431.47;;;16.38;61.70
77263;BME280;66373;52.334;4.806;2023-11-18T11:56:41;101395.22;;;16.17;61.53
77263;BME280;66373;52.334;4.806;2023-11-18T11:59:15;101321.06;;;15.72;61.54
77263;BME280;66373;52.334;4.806;2023-11-18T12:01:45;101388.41;;;15.99;61.42
77263;BME280;66373;52.334;4.806;2023-11-18T12:04:18;101315.88;;;15.72;61.55
77263;BME280;66373;52.334;4.806;2023-11-18T12:06:53;101327.84;;;16.02;61.46
77263;BME280;66373;52.334;4.806;2023-11-18T12:09:22;101365.66;;;16.45;61.42
77263;BME280;66373;52.334;4.806;2023-11-18T12:12:02;101381.25;;;16.41;61.67
77263;BME280;66373;52.334;4.806;2023-11-18T12:14:32;101342.47;;;16.12;61.63
77263;BME280;66373;52.334;4.806;2023-11-18T12:17:10;101384.72;;;16.43;61.50
77263;BME280;66373;52.334;4.806;2023-11-18T12:19:47;101328.56;;;16.28;61.76
77263;BME280;66373;52.334;4.806;2023-11-18T12:22:20;101282.00;;;16.01;61.33
77263;BME280;66373;52.334;4.806;2023-11-18T12:25:28;101300.75;;;16.44;61.52
77263;BME280;66373;52.334;4.806;2023-11-18T12:28:00;101254.13;;;16.30;61.68
77263;BME280;66373;52.334;4.806;2023-11-18T12:30:42;101285.34;;;16.18;61.92
77263;BME280;66373;52.334;4.806;2023-11-18T12:33:23;101340.66;;;16.32;61.65
77263;BME280;66373;52.334;4.806;2023-11-18T12:36:24;101235.56;;;15.58;61.67
77263;BME280;66373;52.334;4.806;2023-11-18T12:39:02;101377.81;;;16.42;61.61
77263;BME280;66373;52.334;4.806;2023-11-18T12:41:53;101260.53;;;15.77;61.52
77263;BME280;66373;52.334;4.806;2023-11-18T12:44:41;101335.47;;;16.35;61.70
77263;BME280;66373;52.334;4.806;2023-11-18T12:47:20;101305.25;;;16.20;61.58
77263;BME280;66373;52.334;4.806;2023-11-18T12:49:54;101344.91;;;16.41;61.77
77263;BME280;66373;52.334;4.806;2023-11-18T12:52:23;101303.47;;;16.30;61.66
77263;BME280;66373;52.334;4.806;2023-11-18T12:54:52;101306.03;;;16.33;61.63
77263;BME280;66373;52.334;4.806;2023-11-18T12:57:26;101313.75;;;16.41;61.76
77263;BME280;66373;52.334;4.806;2023-11-18T12:59:57;101287.03;;;16.28;61.75
77263;BME280;66373;52.334;4.806;2023-11-18T13:02:26;101257.69;;;16.15;61.85
77263;BME280;66373;52.334;4.806;2023-11-18T13:04:57;101280.13;;;16.27;61.73
77263;BME280;66373;52.334;4.806;2023-11-18T13:07:25;101219.72;;;16.01;61.68
77263;BME280;66373;52.334;4.806;2023-11-18T13:09:52;101204.16;;;16.01;61.54